Time;durP1;ratioP1;P1;durP2;ratioP2;P2;SDS_P1;SDS_P2;PMS_P1;PMS_P2;Temp;Humidity;BMP_temperature;BMP_pressure;BME280_temperature;BME280_humidity;BME280_pressure;Samples;Min_cycle;Max_cycle;Signal;HPM_P1;HPM_P2
2021/03/27 00:00:54;;;;;;;25.20;3.80;;;;;;;;;;4992321;28;20022;-64
2021/03/27 00:03:36;;;;;;;31.95;4.07;;;;;;;;;;4990910;28;20379;-64
2021/03/27 00:06:08;;;;;;;32.83;4.53;;;;;;;;;;5003162;28;20019;-66
2021/03/27 00:08:34;;;;;;;;;;;;;;;;;;4999623;28;20029;-63
2021/03/27 00:11:07;;;;;;;25.38;3.35;;;;;;;;;;5005921;28;19984;-64
2021/03/27 00:13:44;;;;;;;20.75;3.45;;;;;;;;;;5014343;28;20390;-64
2021/03/27 00:16:29;;;;;;;28.63;4.25;;;;;;;;;;5013924;28;20032;-65
2021/03/27 00:18:56;;;;;;;16.80;3.47;;;;;;;;;;5013449;28;20054;-63
2021/03/27 00:21:31;;;;;;;21.63;3.53;;;;;;;;;;5013750;28;20026;-63
2021/03/27 00:24:13;;;;;;;29.45;3.92;;;;;;;;;;5001599;28;20026;-66
2021/03/27 00:27:00;;;;;;;28.60;5.07;;;;;;;;;;5014532;28;21078;-65
2021/03/27 00:29:36;;;;;;;26.42;4.38;;;;;;;;;;5015984;28;20022;-68
2021/03/27 00:32:24;;;;;;;30.23;4.05;;;;;;;;;;5011873;28;20058;-63
2021/03/27 00:34:55;;;;;;;24.08;3.70;;;;;;;;;;4998340;28;20482;-62
2021/03/27 00:37:24;;;;;;;35.25;6.05;;;;;;;;;;5000328;28;20076;-65
2021/03/27 00:40:09;;;;;;;36.80;5.13;;;;;;;;;;5000287;28;20034;-68
2021/03/27 00:42:38;;;;;;;37.83;5.45;;;;;;;;;;5007692;28;20022;-64
2021/03/27 00:45:25;;;;;;;36.13;5.72;;;;;;;;;;5006206;28;20026;-63
2021/03/27 00:47:53;;;;;;;36.15;5.63;;;;;;;;;;5015277;28;20541;-65
2021/03/27 00:50:28;;;;;;;30.90;5.60;;;;;;;;;;5015785;28;20041;-63
2021/03/27 00:52:57;;;;;;;160.55;8.82;;;;;;;;;;5015708;28;20513;-65
2021/03/27 00:55:29;;;;;;;107.90;8.68;;;;;;;;;;5014748;28;20110;-65
2021/03/27 00:57:58;;;;;;;29.10;5.25;;;;;;;;;;5015471;28;20033;-67
2021/03/27 01:00:28;;;;;;;32.38;5.10;;;;;;;;;;5015600;28;20033;-68
2021/03/27 01:02:59;;;;;;;25.15;5.28;;;;;;;;;;5003156;28;20018;-64
2021/03/27 01:05:28;;;;;;;34.22;4.82;;;;;;;;;;5007109;28;20026;-67
2021/03/27 01:07:56;;;;;;;25.10;4.65;;;;;;;;;;4997939;28;20038;-63
2021/03/27 01:10:31;;;;;;;22.02;4.82;;;;;;;;;;5003403;28;20085;-67
2021/03/27 01:12:58;;;;;;;28.67;4.93;;;;;;;;;;5001772;28;20038;-66
2021/03/27 01:15:28;;;;;;;26.73;4.82;;;;;;;;;;5004366;28;20017;-70
2021/03/27 01:17:57;;;;;;;30.55;5.97;;;;;;;;;;5013187;28;20082;-61
2021/03/27 01:20:26;;;;;;;23.25;4.57;;;;;;;;;;5010413;28;20057;-67
2021/03/27 01:22:55;;;;;;;20.30;4.05;;;;;;;;;;4994175;28;20030;-67
2021/03/27 01:25:23;;;;;;;21.92;4.47;;;;;;;;;;4996982;28;20501;-65
2021/03/27 01:28:02;;;;;;;27.58;4.75;;;;;;;;;;4993879;28;20028;-63
2021/03/27 01:30:32;;;;;;;21.38;3.88;;;;;;;;;;4980407;28;20022;-62
2021/03/27 01:33:13;;;;;;;26.38;4.13;;;;;;;;;;4998281;28;20034;-68
2021/03/27 01:35:45;;;;;;;21.88;4.40;;;;;;;;;;5013495;28;20026;-68
2021/03/27 01:38:12;;;;;;;17.75;3.67;;;;;;;;;;5014846;28;20029;-68
2021/03/27 01:40:54;;;;;;;20.02;4.22;;;;;;;;;;4996529;28;20036;-67
2021/03/27 01:43:24;;;;;;;23.60;4.13;;;;;;;;;;5001131;28;20036;-65
2021/03/27 01:45:51;;;;;;;17.48;4.95;;;;;;;;;;5014232;28;20109;-64
2021/03/27 01:48:22;;;;;;;22.02;4.25;;;;;;;;;;5014058;28;20567;-65
2021/03/27 01:50:52;;;;;;;14.32;3.90;;;;;;;;;;5013406;28;20065;-62
2021/03/27 01:53:28;;;;;;;18.08;3.53;;;;;;;;;;5013228;28;20454;-64
2021/03/27 01:56:15;;;;;;;14.43;3.35;;;;;;;;;;5006977;28;20026;-63
2021/03/27 01:58:51;;;;;;;15.65;3.75;;;;;;;;;;4968681;28;20091;-62
2021/03/27 02:01:27;;;;;;;14.80;3.40;;;;;;;;;;4990971;28;20445;-62
2021/03/27 02:04:14;;;;;;;18.33;3.60;;;;;;;;;;5013405;28;20478;-66
2021/03/27 02:07:13;;;;;;;16.52;3.85;;;;;;;;;;5011759;28;20022;-68
2021/03/27 02:09:47;;;;;;;11.85;2.95;;;;;;;;;;4958715;28;20053;-63
2021/03/27 02:12:32;;;;;;;16.25;2.95;;;;;;;;;;4997085;28;20042;-63
2021/03/27 02:15:02;;;;;;;18.40;3.58;;;;;;;;;;5010242;28;20105;-63
2021/03/27 02:17:35;;;;;;;15.10;3.47;;;;;;;;;;5012230;28;20117;-64
2021/03/27 02:20:23;;;;;;;14.13;3.30;;;;;;;;;;5013877;28;20018;-65
2021/03/27 02:23:12;;;;;;;17.35;3.17;;;;;;;;;;5014453;28;20091;-65
2021/03/27 02:25:54;;;;;;;11.40;3.33;;;;;;;;;;5002441;28;20026;-64
2021/03/27 02:28:30;;;;;;;19.73;3.33;;;;;;;;;;5007729;28;20048;-63
2021/03/27 02:31:04;;;;;;;18.70;3.33;;;;;;;;;;5013071;28;20045;-63
2021/03/27 02:33:49;;;;;;;11.70;2.83;;;;;;;;;;5014196;28;20481;-64
2021/03/27 02:36:22;;;;;;;13.35;2.83;;;;;;;;;;5013621;28;20022;-65
2021/03/27 02:38:56;;;;;;;17.55;2.90;;;;;;;;;;5012187;28;20022;-64
2021/03/27 02:41:49;;;;;;;10.45;2.53;;;;;;;;;;5008335;28;20050;-65
2021/03/27 02:44:24;;;;;;;17.67;2.95;;;;;;;;;;4975654;28;20035;-63
2021/03/27 02:46:53;;;;;;;14.80;3.20;;;;;;;;;;5013260;28;20083;-66
2021/03/27 02:49:30;;;;;;;10.45;3.08;;;;;;;;;;5014232;28;20057;-66
2021/03/27 02:51:57;;;;;;;11.85;2.78;;;;;;;;;;5014635;28;20034;-63
2021/03/27 02:54:24;;;;;;;13.73;2.80;;;;;;;;;;5014203;28;20064;-65
2021/03/27 02:56:55;;;;;;;12.27;3.05;;;;;;;;;;5014712;28;20037;-62
2021/03/27 02:59:31;;;;;;;11.13;2.90;;;;;;;;;;5010256;28;20101;-62
2021/03/27 03:02:06;;;;;;;15.52;2.92;;;;;;;;;;5003568;28;20026;-64
2021/03/27 03:04:35;;;;;;;10.15;2.40;;;;;;;;;;5018038;28;20030;-61
2021/03/27 03:07:07;;;;;;;15.07;2.35;;;;;;;;;;5018279;28;20053;-65
2021/03/27 03:09:38;;;;;;;8.27;2.58;;;;;;;;;;5018904;28;20030;-69
2021/03/27 03:12:15;;;;;;;11.57;2.47;;;;;;;;;;5019745;28;20651;-69
2021/03/27 03:14:51;;;;;;;10.25;2.60;;;;;;;;;;5019089;28;20753;-65
2021/03/27 03:17:24;;;;;;;12.30;2.60;;;;;;;;;;5019308;28;20108;-68
2021/03/27 03:19:57;;;;;;;10.65;2.47;;;;;;;;;;5018470;28;20080;-70
2021/03/27 03:22:35;;;;;;;10.00;2.13;;;;;;;;;;5018653;28;20105;-67
2021/03/27 03:25:11;;;;;;;11.02;2.30;;;;;;;;;;5018843;28;20493;-68
2021/03/27 03:27:47;;;;;;;12.07;2.33;;;;;;;;;;5019294;28;20014;-68
2021/03/27 03:30:14;;;;;;;14.25;3.03;;;;;;;;;;5018612;28;20021;-68
2021/03/27 03:33:09;;;;;;;9.95;2.58;;;;;;;;;;5001176;28;20026;-68
2021/03/27 03:35:44;;;;;;;13.07;2.33;;;;;;;;;;5018679;28;20032;-65
2021/03/27 03:38:21;;;;;;;7.85;2.28;;;;;;;;;;5018286;28;20512;-69
2021/03/27 03:40:48;;;;;;;8.88;2.22;;;;;;;;;;5016794;28;20529;-66
2021/03/27 03:43:33;;;;;;;13.43;3.80;;;;;;;;;;5007826;28;20512;-64
2021/03/27 03:46:18;;;;;;;11.07;2.50;;;;;;;;;;5013037;28;20093;-65
2021/03/27 03:48:51;;;;;;;7.90;2.45;;;;;;;;;;5016912;28;20030;-65
2021/03/27 03:51:17;;;;;;;;;;;;;;;;;;5015035;28;20026;-72
2021/03/27 03:53:53;;;;;;;10.00;2.30;;;;;;;;;;4979106;28;19906;-65
2021/03/27 03:56:29;;;;;;;13.65;2.05;;;;;;;;;;4987833;28;20026;-70
2021/03/27 03:59:14;;;;;;;7.72;2.40;;;;;;;;;;5015031;28;20026;-71
2021/03/27 04:01:59;;;;;;;10.00;2.55;;;;;;;;;;5014117;28;20032;-71
2021/03/27 04:04:34;;;;;;;13.52;2.53;;;;;;;;;;4997610;28;20022;-72
2021/03/27 04:07:04;;;;;;;9.02;2.08;;;;;;;;;;5014863;28;20037;-71
2021/03/27 04:09:31;;;;;;;10.02;2.03;;;;;;;;;;5014988;28;20030;-71
2021/03/27 04:12:10;;;;;;;7.85;1.92;;;;;;;;;;5014889;28;20030;-71
2021/03/27 04:14:40;;;;;;;7.30;2.28;;;;;;;;;;5014748;28;20033;-71
2021/03/27 04:17:19;;;;;;;9.43;2.00;;;;;;;;;;5014720;28;20018;-71
2021/03/27 04:20:09;;;;;;;8.45;1.88;;;;;;;;;;5014574;28;20026;-71
2021/03/27 04:22:40;;;;;;;6.55;1.77;;;;;;;;;;5015006;28;20062;-71
2021/03/27 04:25:23;;;;;;;10.52;1.98;;;;;;;;;;5014793;28;20482;-70
2021/03/27 04:28:08;;;;;;;9.45;2.30;;;;;;;;;;5014318;28;20477;-71
2021/03/27 04:30:48;;;;;;;6.15;2.10;;;;;;;;;;5014493;28;20018;-71
2021/03/27 04:33:33;;;;;;;5.53;2.00;;;;;;;;;;5000335;28;20065;-71
2021/03/27 04:36:08;;;;;;;9.40;1.85;;;;;;;;;;4994956;28;20486;-71
2021/03/27 04:38:38;;;;;;;5.85;1.98;;;;;;;;;;4994859;28;20050;-71
2021/03/27 04:41:05;;;;;;;6.40;1.90;;;;;;;;;;4994757;28;20034;-71
2021/03/27 04:43:39;;;;;;;9.50;1.73;;;;;;;;;;4994817;28;20034;-71
2021/03/27 04:46:12;;;;;;;11.82;2.17;;;;;;;;;;4994758;28;20023;-71
2021/03/27 04:48:45;;;;;;;7.82;2.20;;;;;;;;;;4994763;28;20072;-70
2021/03/27 04:51:12;;;;;;;;;;;;;;;;;;4995216;28;20062;-70
2021/03/27 04:53:50;;;;;;;11.18;2.00;;;;;;;;;;4994514;28;19968;-71
2021/03/27 04:56:27;;;;;;;9.57;1.90;;;;;;;;;;4977050;28;20030;-71
2021/03/27 04:58:59;;;;;;;6.40;1.90;;;;;;;;;;5013819;28;20025;-71
2021/03/27 05:01:38;;;;;;;8.73;1.85;;;;;;;;;;5013534;28;20026;-71
2021/03/27 05:04:11;;;;;;;8.35;1.80;;;;;;;;;;5013022;28;20114;-69
2021/03/27 05:06:42;;;;;;;7.78;1.58;;;;;;;;;;5013974;28;20474;-71
2021/03/27 05:09:25;;;;;;;7.10;1.90;;;;;;;;;;5013961;28;20056;-71
2021/03/27 05:11:55;;;;;;;5.13;1.30;;;;;;;;;;5013703;28;20034;-70
2021/03/27 05:14:34;;;;;;;6.80;1.70;;;;;;;;;;5013788;28;20030;-70
2021/03/27 05:17:16;;;;;;;7.95;2.03;;;;;;;;;;5013612;28;20030;-71
2021/03/27 05:19:52;;;;;;;7.85;1.52;;;;;;;;;;5013674;28;20036;-71
2021/03/27 05:22:22;;;;;;;5.40;1.77;;;;;;;;;;5013790;28;20065;-70
2021/03/27 05:25:01;;;;;;;7.90;1.80;;;;;;;;;;5012870;28;20022;-70
2021/03/27 05:27:43;;;;;;;4.90;1.67;;;;;;;;;;5013555;28;20026;-71
2021/03/27 05:30:10;;;;;;;6.18;1.65;;;;;;;;;;5013547;28;20485;-69
2021/03/27 05:32:37;;;;;;;4.32;1.33;;;;;;;;;;5013537;28;20034;-71
2021/03/27 05:35:23;;;;;;;7.78;1.92;;;;;;;;;;4995708;28;20029;-67
2021/03/27 05:37:50;;;;;;;6.45;1.70;;;;;;;;;;5013548;28;20109;-69
2021/03/27 05:40:26;;;;;;;6.03;1.40;;;;;;;;;;5013170;28;20033;-69
2021/03/27 05:43:11;;;;;;;7.05;1.48;;;;;;;;;;5013419;28;20033;-69
2021/03/27 05:45:56;;;;;;;5.47;1.60;;;;;;;;;;5013114;28;20091;-69
2021/03/27 05:48:32;;;;;;;3.97;1.20;;;;;;;;;;5013266;28;20030;-69
2021/03/27 05:51:12;;;;;;;6.30;1.88;;;;;;;;;;5013144;28;20394;-68
2021/03/27 05:53:45;;;;;;;5.88;2.00;;;;;;;;;;5013169;28;20125;-69
2021/03/27 05:56:18;;;;;;;6.13;1.80;;;;;;;;;;5012978;28;20033;-68
2021/03/27 05:58:48;;;;;;;5.68;1.80;;;;;;;;;;4995536;28;20367;-68
2021/03/27 06:01:27;;;;;;;6.32;1.83;;;;;;;;;;5013128;28;20026;-69
2021/03/27 06:03:54;;;;;;;5.57;1.60;;;;;;;;;;5012980;28;20033;-69
2021/03/27 06:06:31;;;;;;;7.47;2.13;;;;;;;;;;5012853;28;20101;-66
2021/03/27 06:09:10;;;;;;;6.18;1.80;;;;;;;;;;5013178;28;20050;-69
2021/03/27 06:11:45;;;;;;;9.13;1.90;;;;;;;;;;5012932;28;20382;-68
2021/03/27 06:14:12;;;;;;;6.75;1.70;;;;;;;;;;5012388;28;20030;-68
2021/03/27 06:16:39;;;;;;;5.30;1.60;;;;;;;;;;5012759;28;20438;-69
2021/03/27 06:19:12;;;;;;;6.10;1.42;;;;;;;;;;5012407;28;20060;-69
2021/03/27 06:22:03;;;;;;;5.40;1.40;;;;;;;;;;5012829;28;20025;-67
2021/03/27 06:24:49;;;;;;;5.07;1.67;;;;;;;;;;5012756;28;20109;-69
2021/03/27 06:27:16;;;;;;;5.78;1.42;;;;;;;;;;5012723;28;20022;-70
2021/03/27 06:30:01;;;;;;;4.78;1.50;;;;;;;;;;5012294;28;20026;-69
2021/03/27 06:32:45;;;;;;;4.10;1.33;;;;;;;;;;5012387;28;20037;-69
2021/03/27 06:35:15;;;;;;;5.15;1.60;;;;;;;;;;5012555;28;20112;-69
2021/03/27 06:37:53;;;;;;;3.47;1.20;;;;;;;;;;5012234;28;20026;-69
2021/03/27 06:40:33;;;;;;;7.22;1.65;;;;;;;;;;5012236;28;20029;-64
2021/03/27 06:43:18;;;;;;;7.78;2.28;;;;;;;;;;5012542;28;20061;-69
2021/03/27 06:45:52;;;;;;;5.22;1.42;;;;;;;;;;5012339;28;20421;-68
2021/03/27 06:48:22;;;;;;;5.82;1.45;;;;;;;;;;5012515;28;20112;-69
2021/03/27 06:51:07;;;;;;;4.45;1.30;;;;;;;;;;5012229;28;20018;-69
2021/03/27 06:53:34;;;;;;;4.53;1.35;;;;;;;;;;5012440;28;20033;-69
2021/03/27 06:56:13;;;;;;;5.97;1.65;;;;;;;;;;5012286;28;20478;-69
2021/03/27 06:58:49;;;;;;;6.28;1.80;;;;;;;;;;5012396;28;20041;-69
2021/03/27 07:01:16;;;;;;;4.55;1.40;;;;;;;;;;5012264;28;20504;-69
2021/03/27 07:03:49;;;;;;;4.47;1.55;;;;;;;;;;5012308;28;20030;-69
2021/03/27 07:06:34;;;;;;;5.75;1.40;;;;;;;;;;5012148;28;20418;-69
2021/03/27 07:09:11;;;;;;;4.63;1.38;;;;;;;;;;5012029;28;20034;-69
2021/03/27 07:11:50;;;;;;;3.78;1.55;;;;;;;;;;5012025;28;20030;-68
2021/03/27 07:14:17;;;;;;;4.82;1.75;;;;;;;;;;5012066;28;20389;-69
2021/03/27 07:17:04;;;;;;;3.80;1.35;;;;;;;;;;5012272;28;20169;-69
2021/03/27 07:19:43;;;;;;;4.78;1.50;;;;;;;;;;5012125;28;20171;-69
2021/03/27 07:22:28;;;;;;;6.50;1.92;;;;;;;;;;5011684;28;20046;-69
2021/03/27 07:25:13;;;;;;;4.55;1.40;;;;;;;;;;5012314;28;20121;-69
2021/03/27 07:27:43;;;;;;;4.38;1.20;;;;;;;;;;5011887;28;20036;-69
2021/03/27 07:30:10;;;;;;;6.85;1.88;;;;;;;;;;5012023;28;20494;-68
2021/03/27 07:33:02;;;;;;;3.60;1.33;;;;;;;;;;5011660;28;20402;-69
2021/03/27 07:35:37;;;;;;;4.10;1.37;;;;;;;;;;5012013;28;20351;-69
2021/03/27 07:38:22;;;;;;;6.35;1.48;;;;;;;;;;5011824;28;20073;-69
2021/03/27 07:40:49;;;;;;;5.93;1.60;;;;;;;;;;5011818;28;20032;-69
2021/03/27 07:43:34;;;;;;;6.53;1.40;;;;;;;;;;5011985;28;20711;-69
2021/03/27 07:46:17;;;;;;;3.85;1.33;;;;;;;;;;5011986;28;20532;-68
2021/03/27 07:49:03;;;;;;;5.22;1.48;;;;;;;;;;4996380;28;20154;-68
2021/03/27 07:51:41;;;;;;;4.30;1.30;;;;;;;;;;5015276;28;20030;-69
2021/03/27 07:54:34;;;;;;;5.40;1.23;;;;;;;;;;5015272;28;20054;-68
2021/03/27 07:57:12;;;;;;;5.47;1.60;;;;;;;;;;5012115;28;20049;-68
2021/03/27 07:59:45;;;;;;;4.55;1.50;;;;;;;;;;5015578;28;20480;-69
2021/03/27 08:02:24;;;;;;;4.78;1.30;;;;;;;;;;5015079;28;20057;-69
2021/03/27 08:04:51;;;;;;;3.80;1.23;;;;;;;;;;5015163;28;20030;-69
2021/03/27 08:07:22;;;;;;;3.05;1.05;;;;;;;;;;5015176;28;20478;-69
2021/03/27 08:10:07;;;;;;;4.63;1.60;;;;;;;;;;5015153;28;20530;-69
2021/03/27 08:12:40;;;;;;;5.32;1.55;;;;;;;;;;5014718;28;20068;-69
2021/03/27 08:15:10;;;;;;;4.43;1.30;;;;;;;;;;5014962;28;20504;-69
2021/03/27 08:18:07;;;;;;;5.47;1.40;;;;;;;;;;5014705;28;20505;-68
2021/03/27 08:20:42;;;;;;;4.18;1.27;;;;;;;;;;4945104;28;20035;-69
2021/03/27 08:23:28;;;;;;;3.30;1.17;;;;;;;;;;5014670;28;20104;-68
2021/03/27 08:26:13;;;;;;;6.43;1.23;;;;;;;;;;5014613;28;20363;-69
2021/03/27 08:28:51;;;;;;;4.30;1.48;;;;;;;;;;5014751;28;20022;-69
2021/03/27 08:31:18;;;;;;;5.28;1.23;;;;;;;;;;5014546;28;20050;-69
2021/03/27 08:33:51;;;;;;;5.22;1.55;;;;;;;;;;5014714;28;20041;-69
2021/03/27 08:36:36;;;;;;;4.68;1.40;;;;;;;;;;5014502;28;20021;-68
2021/03/27 08:39:21;;;;;;;4.13;1.20;;;;;;;;;;5014466;28;20026;-69
2021/03/27 08:41:54;;;;;;;7.00;1.40;;;;;;;;;;5014255;28;20030;-69
2021/03/27 08:44:33;;;;;;;3.55;1.30;;;;;;;;;;5014385;28;20542;-69
2021/03/27 08:47:06;;;;;;;4.07;1.30;;;;;;;;;;5014307;28;20025;-69
2021/03/27 08:49:56;;;;;;;4.82;1.25;;;;;;;;;;5014414;28;20025;-69
2021/03/27 08:52:32;;;;;;;5.10;1.50;;;;;;;;;;4977473;28;20500;-68
2021/03/27 08:55:08;;;;;;;4.05;1.48;;;;;;;;;;5014340;28;20026;-68
2021/03/27 08:57:35;;;;;;;4.18;1.45;;;;;;;;;;5014295;28;20030;-68
2021/03/27 09:00:08;;;;;;;3.80;1.20;;;;;;;;;;5012805;28;20034;-68
2021/03/27 09:02:50;;;;;;;3.53;1.20;;;;;;;;;;5014078;28;20022;-67
2021/03/27 09:05:32;;;;;;;3.28;1.40;;;;;;;;;;5014121;28;20024;-68
2021/03/27 09:08:18;;;;;;;5.00;1.45;;;;;;;;;;5013960;28;20024;-68
2021/03/27 09:11:13;;;;;;;2.97;1.20;;;;;;;;;;5013808;28;20520;-70
2021/03/27 09:14:00;;;;;;;5.03;1.52;;;;;;;;;;4985403;28;20057;-68
2021/03/27 09:16:37;;;;;;;3.05;1.35;;;;;;;;;;5013970;28;20045;-68
2021/03/27 09:19:23;;;;;;;4.97;1.70;;;;;;;;;;5013680;28;20136;-68
2021/03/27 09:21:57;;;;;;;3.40;1.30;;;;;;;;;;5013340;28;20148;-69
2021/03/27 09:24:24;;;;;;;4.75;1.40;;;;;;;;;;5013708;28;20025;-68
2021/03/27 09:27:09;;;;;;;2.40;1.40;;;;;;;;;;5013629;28;20033;-68
2021/03/27 09:29:48;;;;;;;5.43;1.20;;;;;;;;;;5013712;28;20018;-68
2021/03/27 09:32:30;;;;;;;4.93;1.38;;;;;;;;;;5013294;28;20037;-68
2021/03/27 09:35:16;;;;;;;2.85;1.13;;;;;;;;;;5013586;28;20021;-68
2021/03/27 09:38:21;;;;;;;4.32;1.38;;;;;;;;;;5013222;28;20084;-68
2021/03/27 09:41:06;;;;;;;4.22;1.10;;;;;;;;;;4933540;29;20159;-68
2021/03/27 09:43:56;;;;;;;3.55;1.27;;;;;;;;;;4933631;29;20082;-68
2021/03/27 09:46:39;;;;;;;7.63;1.73;;;;;;;;;;4994680;28;20041;-68
2021/03/27 09:49:28;;;;;;;3.60;1.38;;;;;;;;;;5013288;28;20050;-68
2021/03/27 09:51:58;;;;;;;3.83;1.40;;;;;;;;;;5013361;28;20061;-68
2021/03/27 09:54:31;;;;;;;3.13;1.30;;;;;;;;;;5013318;28;20040;-68
2021/03/27 09:57:02;;;;;;;3.97;1.15;;;;;;;;;;5012519;28;20029;-68
2021/03/27 09:59:46;;;;;;;3.85;1.33;;;;;;;;;;5012731;28;20417;-68
2021/03/27 10:02:13;;;;;;;2.55;0.90;;;;;;;;;;5012934;28;20490;-68
2021/03/27 10:04:58;;;;;;;3.67;1.15;;;;;;;;;;5013118;28;20034;-68
2021/03/27 10:07:25;;;;;;;6.97;1.52;;;;;;;;;;5012032;28;20113;-67
2021/03/27 10:09:58;;;;;;;4.97;1.27;;;;;;;;;;5012924;28;20029;-67
2021/03/27 10:12:34;;;;;;;5.55;1.48;;;;;;;;;;5012278;28;20037;-68
2021/03/27 10:15:05;;;;;;;5.07;1.15;;;;;;;;;;5012786;28;20026;-67
2021/03/27 10:17:34;;;;;;;3.75;1.35;;;;;;;;;;5012750;28;20038;-67
2021/03/27 10:20:08;;;;;;;3.58;1.30;;;;;;;;;;5012856;28;20075;-67
2021/03/27 10:23:05;;;;;;;6.13;1.58;;;;;;;;;;5012680;28;20022;-67
2021/03/27 10:25:55;;;;;;;5.70;1.48;;;;;;;;;;5012802;28;20034;-68
2021/03/27 10:28:28;;;;;;;3.45;1.40;;;;;;;;;;4976363;28;20096;-68
2021/03/27 10:30:57;;;;;;;5.20;1.33;;;;;;;;;;5012535;28;20496;-68
2021/03/27 10:33:40;;;;;;;2.83;0.90;;;;;;;;;;5012220;28;20091;-68
2021/03/27 10:36:21;;;;;;;3.78;1.30;;;;;;;;;;5012600;28;20138;-65
2021/03/27 10:38:54;;;;;;;5.00;1.40;;;;;;;;;;5012379;28;20095;-68
2021/03/27 10:41:27;;;;;;;2.72;1.10;;;;;;;;;;5012195;28;20113;-67
2021/03/27 10:43:57;;;;;;;4.22;1.35;;;;;;;;;;5012480;28;20018;-68
2021/03/27 10:46:27;;;;;;;4.28;1.08;;;;;;;;;;5012549;28;20049;-68
2021/03/27 10:48:57;;;;;;;3.70;1.10;;;;;;;;;;5012366;28;20057;-68
2021/03/27 10:51:36;;;;;;;3.30;1.10;;;;;;;;;;5012532;28;20021;-68
2021/03/27 10:54:22;;;;;;;3.00;1.13;;;;;;;;;;5012428;28;20067;-67
2021/03/27 10:56:59;;;;;;;6.43;1.20;;;;;;;;;;5012379;28;20041;-66
2021/03/27 10:59:30;;;;;;;4.25;1.33;;;;;;;;;;5012456;28;20548;-67
2021/03/27 11:02:16;;;;;;;3.33;1.27;;;;;;;;;;5012319;28;20022;-67
2021/03/27 11:04:43;;;;;;;3.50;0.98;;;;;;;;;;5012005;28;20021;-67
2021/03/27 11:07:19;;;;;;;3.13;1.23;;;;;;;;;;5012240;28;20530;-68
2021/03/27 11:10:12;;;;;;;3.35;0.95;;;;;;;;;;5012282;28;20030;-68
2021/03/27 11:12:57;;;;;;;3.45;1.30;;;;;;;;;;5012110;28;20040;-67
2021/03/27 11:15:42;;;;;;;4.03;1.33;;;;;;;;;;5011961;28;20024;-68
2021/03/27 11:18:18;;;;;;;4.32;1.05;;;;;;;;;;5011947;28;20050;-67
2021/03/27 11:21:03;;;;;;;3.28;1.30;;;;;;;;;;5012076;28;20030;-68
2021/03/27 11:23:30;;;;;;;4.57;1.20;;;;;;;;;;5013907;28;20018;-67
2021/03/27 11:26:08;;;;;;;4.57;1.23;;;;;;;;;;5015692;28;20025;-68
2021/03/27 11:28:37;;;;;;;3.92;1.20;;;;;;;;;;5015871;28;20532;-67
2021/03/27 11:31:16;;;;;;;4.20;1.40;;;;;;;;;;5015777;28;20018;-68
2021/03/27 11:34:03;;;;;;;4.60;1.40;;;;;;;;;;5015619;28;20030;-68
2021/03/27 11:36:46;;;;;;;4.82;1.23;;;;;;;;;;5015632;28;20157;-68
2021/03/27 11:39:12;;;;;;;;;;;;;;;;;;5016329;28;20022;-66
2021/03/27 11:41:46;;;;;;;5.47;1.30;;;;;;;;;;5015586;28;19905;-67
2021/03/27 11:44:16;;;;;;;4.63;1.20;;;;;;;;;;5015463;28;20022;-68
2021/03/27 11:47:04;;;;;;;3.03;1.17;;;;;;;;;;5015230;28;20117;-68
2021/03/27 11:49:30;;;;;;;4.15;1.10;;;;;;;;;;5015445;28;20091;-68
2021/03/27 11:51:57;;;;;;;4.35;1.65;;;;;;;;;;5015437;28;20105;-68
2021/03/27 11:54:42;;;;;;;3.35;1.10;;;;;;;;;;5015341;28;20022;-67
2021/03/27 11:57:18;;;;;;;5.82;1.45;;;;;;;;;;5015034;28;20036;-68
2021/03/27 12:02:37;;;;;;;4.13;1.08;;;;;;;;;;5015365;28;20064;-68
2021/03/27 12:05:35;;;;;;;3.00;1.02;;;;;;;;;;5015298;28;20057;-68
2021/03/27 12:08:08;;;;;;;2.90;1.02;;;;;;;;;;4972064;28;20037;-66
2021/03/27 12:10:44;;;;;;;3.72;1.42;;;;;;;;;;5015068;28;20478;-67
2021/03/27 12:13:19;;;;;;;4.65;1.58;;;;;;;;;;5014859;28;20046;-67
2021/03/27 12:16:09;;;;;;;2.08;0.88;;;;;;;;;;5015086;28;20024;-68
2021/03/27 12:18:54;;;;;;;6.18;1.77;;;;;;;;;;5004926;28;20125;-67
2021/03/27 12:21:28;;;;;;;3.38;1.02;;;;;;;;;;5014734;28;20106;-67
2021/03/27 12:24:14;;;;;;;3.75;1.40;;;;;;;;;;5014903;28;20030;-66
2021/03/27 12:26:40;;;;;;;5.80;1.25;;;;;;;;;;5014596;28;20029;-66
2021/03/27 12:29:19;;;;;;;2.10;1.00;;;;;;;;;;5014701;28;20160;-63
2021/03/27 12:32:15;;;;;;;4.20;1.30;;;;;;;;;;5013498;28;20046;-67
2021/03/27 12:34:53;;;;;;;3.15;1.02;;;;;;;;;;4990485;28;20508;-70
2021/03/27 12:37:41;;;;;;;6.82;1.45;;;;;;;;;;5008452;28;20047;-69
2021/03/27 12:40:24;;;;;;;3.28;1.00;;;;;;;;;;4996101;28;20018;-70
2021/03/27 12:43:11;;;;;;;4.95;1.48;;;;;;;;;;4993770;28;20049;-70
2021/03/27 12:45:43;;;;;;;5.47;1.30;;;;;;;;;;4992823;28;20034;-68
2021/03/27 12:48:20;;;;;;;3.80;1.50;;;;;;;;;;4998287;28;20017;-73
2021/03/27 12:50:50;;;;;;;4.40;1.40;;;;;;;;;;4993760;28;20636;-68
2021/03/27 12:53:20;;;;;;;5.20;1.40;;;;;;;;;;4996105;28;20084;-71
2021/03/27 12:56:08;;;;;;;3.88;1.20;;;;;;;;;;4991371;28;20482;-67
2021/03/27 12:58:40;;;;;;;3.85;1.10;;;;;;;;;;4993913;28;20025;-65
2021/03/27 13:01:19;;;;;;;3.72;1.27;;;;;;;;;;4996401;28;20014;-67
2021/03/27 13:04:00;;;;;;;3.88;1.30;;;;;;;;;;4994533;28;20030;-61
2021/03/27 13:06:47;;;;;;;2.38;1.00;;;;;;;;;;4990244;28;20041;-63
2021/03/27 13:09:15;;;;;;;6.88;1.60;;;;;;;;;;4994062;28;20029;-67
2021/03/27 13:11:45;;;;;;;3.70;1.30;;;;;;;;;;4995208;28;20038;-61
2021/03/27 13:14:13;;;;;;;4.20;1.13;;;;;;;;;;5007143;28;20626;-72
2021/03/27 13:16:44;;;;;;;3.92;1.40;;;;;;;;;;5012960;28;20068;-69
2021/03/27 13:19:29;;;;;;;5.97;1.45;;;;;;;;;;5003855;28;20096;-67
2021/03/27 13:22:00;;;;;;;2.67;0.98;;;;;;;;;;4997108;28;20498;-65
2021/03/27 13:24:27;;;;;;;3.90;1.20;;;;;;;;;;4997348;28;20069;-66
2021/03/27 13:27:03;;;;;;;5.72;1.20;;;;;;;;;;5004494;28;20026;-65
2021/03/27 13:29:33;;;;;;;4.75;1.05;;;;;;;;;;4992434;28;20033;-67
2021/03/27 13:32:05;;;;;;;4.57;1.65;;;;;;;;;;4994791;28;20070;-66
2021/03/27 13:34:35;;;;;;;4.22;1.45;;;;;;;;;;5013084;28;20022;-67
2021/03/27 13:37:02;;;;;;;6.57;1.42;;;;;;;;;;5000124;28;20030;-65
2021/03/27 13:39:38;;;;;;;5.22;2.35;;;;;;;;;;5012081;28;20561;-67
2021/03/27 13:42:11;;;;;;;5.53;1.27;;;;;;;;;;5008484;28;20034;-66
2021/03/27 13:44:56;;;;;;;6.20;1.50;;;;;;;;;;4998599;28;20108;-67
2021/03/27 13:47:41;;;;;;;4.65;1.38;;;;;;;;;;5005393;28;20021;-63
2021/03/27 13:50:08;;;;;;;10.07;1.85;;;;;;;;;;5000929;28;20034;-62
2021/03/27 13:52:37;;;;;;;5.95;1.70;;;;;;;;;;4997519;28;20044;-61
2021/03/27 13:55:30;;;;;;;6.90;1.63;;;;;;;;;;4992929;28;20061;-67
2021/03/27 13:58:00;;;;;;;7.13;1.67;;;;;;;;;;4994459;28;20022;-69
2021/03/27 14:00:43;;;;;;;5.60;1.83;;;;;;;;;;4983900;28;20053;-67
2021/03/27 14:03:19;;;;;;;7.40;1.80;;;;;;;;;;4993692;28;20026;-67
2021/03/27 14:06:06;;;;;;;4.68;1.60;;;;;;;;;;4995203;28;20402;-69
2021/03/27 14:08:33;;;;;;;6.45;1.40;;;;;;;;;;4983858;28;20077;-73
2021/03/27 14:11:19;;;;;;;9.68;1.83;;;;;;;;;;4995525;28;20029;-69
2021/03/27 14:13:54;;;;;;;10.85;2.22;;;;;;;;;;5009972;28;20429;-71
2021/03/27 14:16:31;;;;;;;10.85;2.03;;;;;;;;;;5009266;28;20416;-67
2021/03/27 14:18:58;;;;;;;15.45;2.40;;;;;;;;;;4992067;28;20046;-65
2021/03/27 14:21:35;;;;;;;16.60;2.30;;;;;;;;;;5005303;28;20061;-66
2021/03/27 14:24:20;;;;;;;12.30;1.90;;;;;;;;;;5001434;28;20065;-64
2021/03/27 14:27:01;;;;;;;15.27;1.80;;;;;;;;;;5012293;28;20026;-66
2021/03/27 14:29:40;;;;;;;19.08;2.22;;;;;;;;;;5012496;28;20113;-66
2021/03/27 14:32:25;;;;;;;12.70;2.08;;;;;;;;;;5012121;28;20053;-63
2021/03/27 14:34:55;;;;;;;15.43;1.95;;;;;;;;;;5000263;28;20045;-65
2021/03/27 14:37:25;;;;;;;13.93;2.10;;;;;;;;;;5012251;28;20496;-66
2021/03/27 14:40:12;;;;;;;12.05;2.15;;;;;;;;;;5012111;28;20026;-66
2021/03/27 14:42:57;;;;;;;9.25;1.83;;;;;;;;;;5011529;28;20073;-64
2021/03/27 14:45:44;;;;;;;8.82;1.77;;;;;;;;;;5012047;28;20037;-66
2021/03/27 14:48:21;;;;;;;7.43;1.77;;;;;;;;;;5012001;28;20079;-66
2021/03/27 14:50:52;;;;;;;14.48;2.13;;;;;;;;;;5012376;28;20374;-66
2021/03/27 14:53:55;;;;;;;10.20;2.00;;;;;;;;;;5012082;28;20034;-67
2021/03/27 14:56:29;;;;;;;9.98;1.58;;;;;;;;;;4932180;29;20182;-64
2021/03/27 14:59:02;;;;;;;6.82;1.60;;;;;;;;;;4997701;28;20029;-66
2021/03/27 15:01:42;;;;;;;7.88;2.00;;;;;;;;;;5016142;28;20026;-65
2021/03/27 15:04:15;;;;;;;9.05;1.88;;;;;;;;;;5015764;28;20075;-66
2021/03/27 15:07:00;;;;;;;7.40;1.90;;;;;;;;;;5015696;28;20022;-66
2021/03/27 15:09:29;;;;;;;9.75;2.30;;;;;;;;;;5016043;28;20083;-67
2021/03/27 15:12:06;;;;;;;7.30;1.67;;;;;;;;;;5015698;28;20359;-66
2021/03/27 15:14:46;;;;;;;5.95;1.80;;;;;;;;;;5015961;28;20030;-64
2021/03/27 15:17:35;;;;;;;8.43;1.92;;;;;;;;;;5002522;28;20014;-65
2021/03/27 15:20:14;;;;;;;8.93;1.83;;;;;;;;;;5015682;28;20038;-65
2021/03/27 15:22:43;;;;;;;5.78;1.42;;;;;;;;;;5015737;28;20087;-66
2021/03/27 15:28:10;;;;;;;6.22;1.75;;;;;;;;;;5015947;28;20429;-66
2021/03/27 15:30:40;;;;;;;6.55;1.95;;;;;;;;;;5015395;28;20029;-66
2021/03/27 15:33:45;;;;;;;10.65;1.67;;;;;;;;;;5008164;28;20034;-65
2021/03/27 15:36:18;;;;;;;4.70;1.80;;;;;;;;;;4953589;29;20064;-66
2021/03/27 15:38:45;;;;;;;7.07;1.58;;;;;;;;;;4954989;29;20042;-66
2021/03/27 15:41:22;;;;;;;6.85;1.38;;;;;;;;;;4980220;28;20457;-67
2021/03/27 15:44:09;;;;;;;7.68;1.80;;;;;;;;;;5015594;28;20057;-67